Time;durP1;ratioP1;P1;durP2;ratioP2;P2;SDS_P1;SDS_P2;PMS_P1;PMS_P2;Temp;Humidity;BMP_temperature;BMP_pressure;BME280_temperature;BME280_humidity;BME280_pressure;Samples;Min_cycle;Max_cycle;Signal;HPM_P1;HPM_P2
2023/10/03 00:04:25;;;;;;;10.90;5.60;;;;;;;14.27;84.30;100190.27;217983;1262;140021;-75
2023/10/03 00:09:29;;;;;;;8.30;6.60;;;;;;;14.25;84.13;100190.98;217603;1260;140436;-76
2023/10/03 00:14:34;;;;;;;10.90;6.90;;;;;;;14.25;84.40;100192.30;218386;1260;140189;-76
2023/10/03 00:19:39;;;;;;;12.00;6.40;;;;;;;14.25;84.58;100186.85;217325;1262;142361;-74
2023/10/03 00:24:45;;;;;;;9.00;6.40;;;;;;;14.26;84.48;100186.70;217495;1262;139715;-74
2023/10/03 00:29:51;;;;;;;9.80;6.10;;;;;;;14.23;84.37;100186.50;217534;1260;140364;-78
2023/10/03 00:34:56;;;;;;;12.50;7.00;;;;;;;14.19;84.27;100184.71;218227;1262;140222;-76
2023/10/03 00:40:00;;;;;;;9.30;7.20;;;;;;;14.17;84.24;100181.46;217371;1262;140186;-78
2023/10/03 00:45:03;;;;;;;10.90;6.20;;;;;;;14.11;84.17;100179.14;217853;1263;140644;-79
2023/10/03 00:50:06;;;;;;;7.60;5.50;;;;;;;14.05;84.29;100166.52;217537;1260;140938;-79
2023/10/03 00:55:11;;;;;;;11.10;6.90;;;;;;;13.96;84.46;100155.62;217898;1260;139943;-79
2023/10/03 01:00:16;;;;;;;8.80;4.90;;;;;;;13.92;84.43;100159.20;217658;1260;140603;-77
2023/10/03 01:05:20;;;;;;;9.00;7.30;;;;;;;13.89;84.53;100149.98;219017;1259;140038;-74
2023/10/03 01:10:24;;;;;;;8.20;5.60;;;;;;;13.87;84.66;100146.30;217798;1260;141649;-75
2023/10/03 01:15:28;;;;;;;9.20;6.80;;;;;;;13.85;84.68;100142.21;217728;1260;140064;-76
2023/10/03 01:20:41;;;;;;;10.20;6.60;;;;;;;13.83;84.83;100138.05;218308;1259;140534;-79
2023/10/03 01:25:47;;;;;;;14.40;5.70;;;;;;;13.79;84.84;100137.29;217591;1259;140822;-75
2023/10/03 01:30:51;;;;;;;11.20;7.80;;;;;;;13.77;85.02;100132.77;217971;1259;140464;-71
2023/10/03 01:35:55;;;;;;;9.90;6.50;;;;;;;13.75;84.95;100131.31;218346;1258;140356;-76
2023/10/03 01:41:00;;;;;;;10.00;6.50;;;;;;;13.74;85.15;100130.61;217709;1258;141183;-72
2023/10/03 01:46:05;;;;;;;9.90;7.10;;;;;;;13.71;85.13;100124.61;217524;1259;141567;-70
2023/10/03 01:51:08;;;;;;;10.50;6.90;;;;;;;13.69;85.13;100117.61;217597;1261;139688;-73
2023/10/03 01:56:14;;;;;;;14.10;7.00;;;;;;;13.67;85.38;100107.83;219551;1258;140113;-78
2023/10/03 02:01:18;;;;;;;12.40;6.80;;;;;;;13.66;85.28;100098.92;217997;1260;139950;-72
2023/10/03 02:06:21;;;;;;;13.50;7.50;;;;;;;13.65;85.57;100101.16;217658;1259;140948;-75
2023/10/03 02:11:27;;;;;;;10.70;7.80;;;;;;;13.65;85.43;100096.05;217680;1261;140616;-68
2023/10/03 02:16:34;;;;;;;13.30;7.40;;;;;;;13.62;85.51;100094.79;217500;1262;140325;-75
2023/10/03 02:21:42;;;;;;;13.30;5.40;;;;;;;13.61;85.54;100094.39;217526;1258;139934;-77
2023/10/03 02:26:47;;;;;;;9.60;6.50;;;;;;;13.59;85.67;100089.70;217902;1259;232510;-77
2023/10/03 02:31:49;;;;;;;15.50;8.20;;;;;;;13.54;85.35;100088.87;218133;1257;140741;-77
2023/10/03 02:36:55;;;;;;;12.40;7.70;;;;;;;13.48;85.32;100082.89;218652;1259;140711;-76
2023/10/03 02:41:59;;;;;;;15.90;8.10;;;;;;;13.43;85.65;100073.58;217535;1261;140999;-78
2023/10/03 02:47:04;;;;;;;13.10;7.00;;;;;;;13.40;85.62;100066.94;218402;1259;139582;-78
2023/10/03 02:52:10;;;;;;;14.00;7.50;;;;;;;13.36;85.63;100059.05;217666;1260;139846;-76
2023/10/03 02:57:15;;;;;;;12.40;6.90;;;;;;;13.33;85.57;100055.89;217929;1260;139877;-78
2023/10/03 03:02:21;;;;;;;13.40;8.50;;;;;;;13.29;85.43;100051.33;218400;1259;140166;-78
2023/10/03 03:07:25;;;;;;;10.90;6.90;;;;;;;13.25;85.68;100045.86;217815;1262;140402;-77
2023/10/03 03:12:28;;;;;;;13.10;8.10;;;;;;;13.21;85.42;100041.93;218116;1258;140752;-78
2023/10/03 03:17:32;;;;;;;10.70;6.20;;;;;;;13.18;85.68;100040.30;217696;1262;140517;-77
2023/10/03 03:22:38;;;;;;;14.50;7.40;;;;;;;13.11;85.29;100028.35;219211;1257;140797;-71
2023/10/03 03:27:41;;;;;;;12.90;8.50;;;;;;;13.04;85.35;100023.25;218062;1260;140966;-78
2023/10/03 03:32:45;;;;;;;11.40;7.50;;;;;;;13.01;85.67;100011.48;218221;1258;140698;-76
2023/10/03 03:37:56;;;;;;;9.30;7.00;;;;;;;12.99;85.72;100006.14;218100;1257;140382;-78
2023/10/03 03:43:00;;;;;;;13.20;7.40;;;;;;;12.96;85.73;100000.15;218248;1258;140103;-78
2023/10/03 03:48:09;;;;;;;11.60;7.80;;;;;;;12.95;85.73;99996.91;217404;1259;141794;-77
2023/10/03 03:53:14;;;;;;;12.80;8.70;;;;;;;12.92;86.04;99998.59;217880;1258;139640;-76
2023/10/03 03:58:21;;;;;;;14.00;8.10;;;;;;;12.89;85.95;99996.02;218014;1259;140690;-76
2023/10/03 04:03:28;;;;;;;14.30;8.50;;;;;;;12.87;86.09;99994.22;218404;1257;140224;-77
2023/10/03 04:08:35;;;;;;;12.50;6.90;;;;;;;12.87;86.14;99989.50;217947;1257;140991;-78
2023/10/03 04:13:49;;;;;;;9.90;6.70;;;;;;;12.87;86.42;99985.13;218409;1257;139400;-79
2023/10/03 04:18:53;;;;;;;10.80;7.20;;;;;;;12.88;86.45;99974.38;217569;1259;140555;-76
2023/10/03 04:23:56;;;;;;;11.50;8.20;;;;;;;12.87;86.34;99972.75;217834;1260;139656;-78
2023/10/03 04:29:00;;;;;;;15.60;7.90;;;;;;;12.84;86.23;99967.59;217697;1259;139755;-77
2023/10/03 04:34:07;;;;;;;10.80;7.40;;;;;;;12.80;86.42;99961.98;217754;1261;140438;-78
2023/10/03 04:39:11;;;;;;;18.10;7.60;;;;;;;12.77;86.55;99952.09;217691;1257;140740;-80
2023/10/03 04:44:17;;;;;;;11.40;8.50;;;;;;;12.75;86.43;99950.83;217783;1257;139645;-79
2023/10/03 04:49:23;;;;;;;9.40;6.30;;;;;;;12.74;86.63;99949.09;218678;1257;139863;-79
2023/10/03 04:54:25;;;;;;;12.40;8.00;;;;;;;12.73;86.55;99946.40;219416;1257;140579;-80
2023/10/03 04:59:28;;;;;;;9.40;6.40;;;;;;;12.72;86.56;99941.77;220448;1257;142092;-79
2023/10/03 05:04:34;;;;;;;12.20;7.60;;;;;;;12.69;86.51;99934.52;218546;1256;375803;-79
2023/10/03 05:09:42;;;;;;;13.00;6.80;;;;;;;12.71;86.61;99937.55;218066;1261;140708;-77
2023/10/03 05:14:48;;;;;;;12.90;8.50;;;;;;;12.74;86.50;99928.34;218083;1261;140272;-79
2023/10/03 05:19:51;;;;;;;9.30;6.70;;;;;;;12.78;86.61;99925.83;218696;1257;140137;-79
2023/10/03 05:24:56;;;;;;;11.10;7.00;;;;;;;12.84;86.83;99923.11;219288;1256;139888;-78
2023/10/03 05:30:04;;;;;;;12.00;6.90;;;;;;;12.89;86.51;99916.18;218391;1258;139222;-70
2023/10/03 05:35:09;;;;;;;11.50;7.60;;;;;;;12.95;86.55;99910.17;218419;1257;140097;-79
2023/10/03 05:40:23;;;;;;;9.70;6.80;;;;;;;13.01;86.72;99904.33;218170;1259;140011;-78
2023/10/03 05:45:29;;;;;;;9.90;7.10;;;;;;;13.08;86.62;99900.52;217810;1262;139811;-78
2023/10/03 05:50:34;;;;;;;9.40;7.20;;;;;;;13.17;86.88;99900.60;217792;1257;141085;-78
2023/10/03 05:55:40;;;;;;;10.30;7.80;;;;;;;13.27;86.81;99896.45;217827;1257;140342;-79
2023/10/03 06:00:44;;;;;;;14.10;6.90;;;;;;;13.39;86.89;99895.17;218240;1257;139869;-79
2023/10/03 06:05:50;;;;;;;8.90;6.20;;;;;;;13.52;86.89;99891.56;217857;1257;140495;-77
2023/10/03 06:10:57;;;;;;;11.90;8.10;;;;;;;13.65;86.94;99887.65;218172;1257;140018;-78
2023/10/03 06:16:06;;;;;;;12.00;7.00;;;;;;;13.79;86.77;99882.77;217710;1257;141561;-74
2023/10/03 06:21:10;;;;;;;13.60;6.90;;;;;;;13.95;86.79;99884.22;217659;1261;141467;-78
2023/10/03 06:26:19;;;;;;;10.50;6.50;;;;;;;14.11;86.89;99880.39;217863;1257;140312;-78
2023/10/03 06:31:24;;;;;;;8.60;6.40;;;;;;;14.29;86.60;99878.70;218086;1257;222027;-77
2023/10/03 06:36:28;;;;;;;10.90;6.10;;;;;;;14.54;86.47;99871.19;217933;1257;140084;-78
2023/10/03 06:41:32;;;;;;;8.00;6.60;;;;;;;14.82;86.21;99872.13;217632;1261;140144;-78
2023/10/03 06:46:37;;;;;;;9.90;7.20;;;;;;;15.08;86.07;99867.71;218265;1257;139798;-77
2023/10/03 06:51:42;;;;;;;14.70;7.90;;;;;;;15.33;85.75;99860.89;218941;1259;140595;-71
2023/10/03 06:56:46;;;;;;;17.90;7.00;;;;;;;15.66;85.43;99855.11;218527;1257;140497;-79
2023/10/03 07:01:50;;;;;;;11.70;7.80;;;;;;;16.28;85.45;99852.94;218846;1257;141067;-79
2023/10/03 07:06:54;;;;;;;10.70;6.80;;;;;;;17.48;84.99;99855.63;219432;1257;141357;-76
2023/10/03 07:11:58;;;;;;;8.10;6.40;;;;;;;18.81;83.25;99854.06;218704;1257;139637;-80
2023/10/03 07:17:03;;;;;;;13.00;7.70;;;;;;;20.04;81.42;99853.55;218788;1257;141745;-80
2023/10/03 07:22:07;;;;;;;12.70;6.70;;;;;;;21.12;79.05;99851.80;217853;1257;140630;-78
2023/10/03 07:27:13;;;;;;;8.50;6.70;;;;;;;21.72;76.68;99854.28;218536;1257;139579;-78
2023/10/03 07:32:18;;;;;;;9.90;7.40;;;;;;;22.14;75.80;99857.91;218312;1257;139316;-73
2023/10/03 07:37:22;;;;;;;11.20;7.00;;;;;;;22.52;74.22;99848.17;217655;1257;139100;-73
2023/10/03 07:42:25;;;;;;;12.50;6.50;;;;;;;22.60;72.63;99849.92;217837;1258;140121;-77
2023/10/03 07:47:28;;;;;;;13.90;7.80;;;;;;;22.71;72.51;99840.38;218290;1260;139427;-73
2023/10/03 07:52:31;;;;;;;13.30;6.50;;;;;;;22.88;71.72;99830.67;217873;1257;140184;-79
2023/10/03 07:57:37;;;;;;;9.40;6.60;;;;;;;22.97;71.06;99820.71;217868;1257;139707;-74
2023/10/03 08:02:43;;;;;;;10.60;7.60;;;;;;;22.97;70.05;99818.38;217706;1262;139911;-78
2023/10/03 08:07:48;;;;;;;12.10;6.90;;;;;;;22.87;68.91;99814.17;218098;1260;139797;-79
2023/10/03 08:12:53;;;;;;;12.70;6.70;;;;;;;22.79;69.00;99811.22;217786;1257;139274;-74
2023/10/03 08:17:58;;;;;;;11.60;7.60;;;;;;;22.88;68.38;99808.27;218643;1257;140059;-78
2023/10/03 08:23:04;;;;;;;10.20;7.30;;;;;;;22.96;68.28;99806.35;218217;1257;139975;-77
2023/10/03 08:28:10;;;;;;;10.40;6.30;;;;;;;23.01;67.58;99794.80;217903;1257;139524;-69
2023/10/03 08:33:16;;;;;;;11.60;7.00;;;;;;;23.17;67.35;99785.86;217939;1257;140602;-78
2023/10/03 08:38:24;;;;;;;11.40;6.60;;;;;;;23.28;66.68;99783.49;217547;1261;139364;-77
2023/10/03 08:43:31;;;;;;;13.30;7.10;;;;;;;23.45;66.60;99779.52;217609;1260;140023;-77
2023/10/03 08:48:43;;;;;;;11.80;7.20;;;;;;;23.48;65.33;99775.44;217666;1257;138828;-77
2023/10/03 08:53:48;;;;;;;10.90;6.30;;;;;;;23.60;65.20;99772.69;219274;1257;139396;-78
2023/10/03 08:58:52;;;;;;;30.10;8.50;;;;;;;23.69;64.46;99760.73;218145;1258;140802;-76
2023/10/03 09:04:04;;;;;;;7.50;5.10;;;;;;;23.86;64.60;99752.77;219410;1257;139417;-77
2023/10/03 09:09:13;;;;;;;11.30;6.60;;;;;;;24.03;63.78;99741.31;218008;1257;138670;-77
2023/10/03 09:14:22;;;;;;;9.10;5.80;;;;;;;24.27;63.62;99742.61;219957;1257;140017;-78
2023/10/03 09:19:44;;;;;;;11.20;6.70;;;;;;;24.48;62.87;99736.92;217911;1259;138667;-77
2023/10/03 09:24:52;;;;;;;10.00;6.30;;;;;;;24.69;62.37;99725.23;218294;1261;139669;-77
2023/10/03 09:29:58;;;;;;;7.00;5.50;;;;;;;24.86;61.76;99720.71;217972;1260;138856;-77
2023/10/03 09:35:09;;;;;;;9.30;6.00;;;;;;;25.09;61.31;99717.54;217849;1257;139023;-77
2023/10/03 09:40:17;;;;;;;9.10;6.00;;;;;;;25.32;61.13;99706.92;217987;1258;139932;-76
2023/10/03 09:45:25;;;;;;;8.90;5.80;;;;;;;25.56;60.64;99710.58;217429;1261;139405;-76
2023/10/03 09:50:30;;;;;;;11.00;5.30;;;;;;;25.79;59.58;99702.94;217974;1258;139483;-76
2023/10/03 09:55:41;;;;;;;7.10;6.20;;;;;;;25.85;59.01;99694.95;217423;1258;139110;-73
2023/10/03 10:00:53;;;;;;;10.20;5.90;;;;;;;25.90;58.06;99687.88;217597;1259;140054;-77
2023/10/03 10:06:22;;;;;;;9.60;5.80;;;;;;;25.69;57.22;99678.30;217786;1259;139410;-76
2023/10/03 10:11:30;;;;;;;8.40;5.70;;;;;;;25.33;57.04;99670.20;218294;1258;141019;-78
2023/10/03 10:16:55;;;;;;;8.60;5.70;;;;;;;25.31;57.39;99661.17;217988;1257;140151;-77
2023/10/03 10:22:00;;;;;;;8.30;5.90;;;;;;;25.69;56.97;99652.26;217954;1261;231234;-76
2023/10/03 10:27:21;;;;;;;5.80;4.90;;;;;;;26.04;56.76;99649.14;218141;1261;138784;-77
2023/10/03 10:32:25;;;;;;;9.10;5.50;;;;;;;26.25;55.64;99640.09;217888;1258;139461;-77
2023/10/03 10:37:49;;;;;;;10.00;6.50;;;;;;;26.46;55.25;99629.48;218920;1257;139015;-75
2023/10/03 10:43:11;;;;;;;9.90;5.70;;;;;;;26.89;54.88;99623.30;217892;1259;139876;-75
2023/10/03 10:48:18;;;;;;;9.60;5.60;;;;;;;27.24;54.18;99618.52;218517;1259;140016;-76
2023/10/03 10:53:35;;;;;;;6.40;5.20;;;;;;;27.59;53.67;99609.23;218257;1259;140730;-73
2023/10/03 10:58:53;;;;;;;7.50;5.30;;;;;;;27.62;51.77;99591.17;218417;1257;140223;-76
2023/10/03 11:03:59;;;;;;;6.20;4.90;;;;;;;27.38;51.59;99578.48;219330;1260;139568;-74
2023/10/03 11:09:04;;;;;;;;;;;;;;;27.37;50.97;99571.19;219449;1258;140195;-75
2023/10/03 11:14:09;;;;;;;12.60;6.10;;;;;;;27.36;51.10;99570.29;218944;1261;126470;-72
2023/10/03 11:19:14;;;;;;;14.50;6.30;;;;;;;27.44;51.15;99568.95;218231;1259;139213;-79
2023/10/03 11:24:20;;;;;;;10.70;5.20;;;;;;;27.63;50.92;99563.68;217945;1257;141443;-78
2023/10/03 11:29:45;;;;;;;8.50;5.50;;;;;;;27.69;50.16;99555.15;217914;1260;139966;-77
2023/10/03 11:34:50;;;;;;;10.40;5.70;;;;;;;27.56;49.82;99548.52;218508;1261;140605;-77
2023/10/03 11:40:03;;;;;;;7.80;5.50;;;;;;;27.48;49.94;99538.33;218086;1259;139309;-71
2023/10/03 11:45:09;;;;;;;8.50;5.30;;;;;;;27.49;49.62;99529.36;217862;1259;138726;-76
2023/10/03 11:50:12;;;;;;;7.90;5.20;;;;;;;27.55;49.36;99514.93;217952;1259;139964;-76
2023/10/03 11:55:16;;;;;;;6.90;5.40;;;;;;;27.49;48.94;99505.95;218092;1259;139171;-75
2023/10/03 12:00:24;;;;;;;9.20;5.70;;;;;;;27.45;48.82;99500.45;217946;1258;140548;-73
2023/10/03 12:05:29;;;;;;;6.20;5.30;;;;;;;27.54;49.16;99484.86;217706;1257;139975;-77
2023/10/03 12:10:34;;;;;;;9.40;5.40;;;;;;;27.59;48.80;99474.84;218103;1257;138881;-77
2023/10/03 12:15:42;;;;;;;20.40;7.20;;;;;;;27.61;48.56;99470.58;217868;1259;140482;-76
2023/10/03 12:20:47;;;;;;;9.50;5.20;;;;;;;27.57;48.64;99465.23;217760;1262;139938;-76
2023/10/03 12:25:52;;;;;;;10.50;4.80;;;;;;;27.59;48.85;99457.23;217941;1257;139999;-76
2023/10/03 12:30:55;;;;;;;7.50;6.00;;;;;;;27.71;48.73;99449.71;217621;1257;139072;-74
2023/10/03 12:36:04;;;;;;;10.20;6.20;;;;;;;27.79;48.54;99445.05;217977;1257;138820;-77
2023/10/03 12:41:09;;;;;;;8.00;5.10;;;;;;;27.80;48.30;99441.87;217985;1261;139933;-77
2023/10/03 12:46:14;;;;;;;9.90;5.90;;;;;;;27.79;47.94;99439.03;219359;1257;139689;-71
2023/10/03 12:51:18;;;;;;;11.50;7.20;;;;;;;27.74;47.60;99424.52;217900;1262;139131;-82
2023/10/03 12:56:23;;;;;;;9.80;6.20;;;;;;;27.72;47.38;99411.95;218006;1259;140430;-74
2023/10/03 13:01:26;;;;;;;15.00;6.40;;;;;;;27.78;47.46;99404.45;218757;1259;138935;-76
2023/10/03 13:06:30;;;;;;;11.80;6.60;;;;;;;27.58;47.23;99402.30;219507;1257;139324;-77
2023/10/03 13:11:33;;;;;;;15.90;7.20;;;;;;;27.12;47.39;99397.27;218599;1261;139696;-72
2023/10/03 13:16:39;;;;;;;10.80;5.60;;;;;;;26.87;47.69;99388.80;217808;1259;141726;-73
2023/10/03 13:21:47;;;;;;;10.00;7.30;;;;;;;26.71;47.88;99385.95;217722;1259;139071;-72
2023/10/03 13:26:54;;;;;;;14.60;7.00;;;;;;;26.60;48.13;99378.61;217803;1261;139110;-75
2023/10/03 13:32:01;;;;;;;10.90;6.80;;;;;;;26.65;48.18;99365.31;218016;1262;139228;-78
2023/10/03 13:37:06;;;;;;;9.90;6.60;;;;;;;26.89;48.15;99360.70;218093;1259;139956;-74
2023/10/03 13:42:11;;;;;;;15.90;7.10;;;;;;;27.01;47.52;99360.58;218246;1262;140265;-71
2023/10/03 13:47:19;;;;;;;11.80;8.00;;;;;;;26.96;47.59;99364.98;218078;1260;140815;-78
2023/10/03 13:52:27;;;;;;;16.00;7.70;;;;;;;26.77;47.52;99350.95;217859;1259;138934;-74
2023/10/03 13:57:36;;;;;;;10.50;6.80;;;;;;;26.42;47.66;99351.67;217890;1259;139156;-75
2023/10/03 14:02:45;;;;;;;12.00;6.80;;;;;;;26.18;48.08;99346.08;217812;1257;139308;-72
2023/10/03 14:07:52;;;;;;;15.10;7.50;;;;;;;26.14;48.38;99335.10;217884;1259;140291;-68
2023/10/03 14:12:58;;;;;;;19.90;8.90;;;;;;;25.97;48.87;99331.80;217512;1259;139939;-69
2023/10/03 14:18:05;;;;;;;20.40;8.90;;;;;;;25.81;49.01;99328.78;217913;1259;139833;-70
2023/10/03 14:23:11;;;;;;;10.80;7.50;;;;;;;25.75;48.90;99326.18;217869;1262;138734;-70
2023/10/03 14:28:25;;;;;;;10.10;7.00;;;;;;;25.82;49.02;99332.79;217963;1260;139108;-70
2023/10/03 14:33:35;;;;;;;15.00;9.10;;;;;;;25.85;48.91;99333.87;218037;1258;139894;-76
2023/10/03 14:38:39;;;;;;;18.40;9.10;;;;;;;25.81;48.88;99337.98;217915;1259;139202;-72
2023/10/03 14:43:50;;;;;;;11.70;7.60;;;;;;;25.62;48.97;99328.35;217805;1262;139983;-75
2023/10/03 14:48:58;;;;;;;14.50;7.90;;;;;;;25.37;48.87;99332.72;217815;1260;139855;-76
2023/10/03 14:54:03;;;;;;;23.70;11.90;;;;;;;25.05;49.11;99336.00;218237;1262;140345;-76
2023/10/03 14:59:08;;;;;;;13.60;8.40;;;;;;;24.75;49.51;99331.92;217945;1259;139066;-77
2023/10/03 15:04:14;;;;;;;13.60;7.90;;;;;;;24.54;50.00;99332.84;218267;1261;139999;-75
2023/10/03 15:09:20;;;;;;;14.80;8.70;;;;;;;24.39;50.34;99336.30;217890;1261;138683;-75
2023/10/03 15:14:24;;;;;;;13.70;8.40;;;;;;;24.27;50.78;99328.40;218813;1259;140935;-69
2023/10/03 15:19:33;;;;;;;16.20;8.30;;;;;;;24.26;50.97;99326.80;217318;1258;139118;-70
2023/10/03 15:24:39;;;;;;;13.00;7.20;;;;;;;24.22;51.26;99330.92;218618;1260;141593;-69
2023/10/03 15:29:44;;;;;;;13.50;8.30;;;;;;;24.08;51.20;99317.44;218328;1261;140577;-72
2023/10/03 15:34:50;;;;;;;11.90;7.80;;;;;;;23.90;51.56;99306.91;217817;1262;139211;-74
2023/10/03 15:39:55;;;;;;;;;;;;;;;23.78;51.97;99304.84;217871;1262;139418;-74
2023/10/03 15:45:11;;;;;;;13.60;7.80;;;;;;;23.63;52.04;99300.05;218233;1258;126707;-72
2023/10/03 15:50:19;;;;;;;11.40;7.10;;;;;;;23.51;52.19;99307.08;217953;1258;140106;-71
2023/10/03 15:55:28;;;;;;;13.60;8.50;;;;;;;23.42;52.46;99300.63;217811;1259;139366;-75
2023/10/03 16:00:38;;;;;;;11.10;7.50;;;;;;;23.29;52.70;99299.69;217869;1262;139450;-70
2023/10/03 16:05:47;;;;;;;13.80;7.80;;;;;;;23.14;53.00;99292.42;217614;1260;139208;-70
2023/10/03 16:10:53;;;;;;;18.60;8.10;;;;;;;22.99;53.34;99290.09;217885;1259;139121;-74
2023/10/03 16:15:56;;;;;;;14.30;8.10;;;;;;;22.84;53.47;99292.21;218049;1259;138873;-73
2023/10/03 16:21:01;;;;;;;16.80;7.80;;;;;;;22.72;53.73;99304.83;217855;1262;138843;-72
2023/10/03 16:26:06;;;;;;;13.60;7.30;;;;;;;22.62;54.02;99299.27;217820;1262;140874;-69
2023/10/03 16:31:14;;;;;;;17.50;7.70;;;;;;;22.49;54.42;99307.88;218923;1261;139226;-68
2023/10/03 16:36:18;;;;;;;14.40;7.00;;;;;;;22.37;54.66;99315.37;218722;1258;139367;-70
2023/10/03 16:41:26;;;;;;;12.30;6.90;;;;;;;22.27;54.79;99329.76;217488;1262;139788;-68
2023/10/03 16:46:34;;;;;;;13.10;6.80;;;;;;;22.16;55.12;99326.46;218686;1262;139909;-68
2023/10/03 16:51:40;;;;;;;10.70;7.70;;;;;;;22.03;55.52;99322.35;220070;1258;140706;-68
2023/10/03 16:56:48;;;;;;;13.00;7.40;;;;;;;21.96;55.68;99316.59;219701;1257;139602;-68
2023/10/03 17:01:53;;;;;;;17.40;7.40;;;;;;;21.90;56.07;99307.72;217800;1262;1870908;-67
2023/10/03 17:06:58;;;;;;;11.30;7.20;;;;;;;21.83;56.24;99305.92;219312;1262;139379;-70
2023/10/03 17:12:03;;;;;;;11.10;7.10;;;;;;;21.76;56.47;99306.20;218375;1258;139600;-72
2023/10/03 17:17:09;;;;;;;9.50;6.40;;;;;;;21.73;56.72;99302.66;217778;1257;140298;-70
2023/10/03 17:22:17;;;;;;;11.70;7.60;;;;;;;21.67;57.02;99296.58;217369;1262;138830;-73
2023/10/03 17:27:24;;;;;;;13.90;6.30;;;;;;;21.59;57.32;99292.35;218397;1261;140271;-71
2023/10/03 17:32:35;;;;;;;12.20;8.40;;;;;;;21.56;57.66;99287.15;217811;1262;139238;-71
2023/10/03 17:37:43;;;;;;;14.80;7.40;;;;;;;21.51;57.87;99293.61;217904;1257;139212;-74
2023/10/03 17:42:50;;;;;;;10.40;7.70;;;;;;;21.48;57.95;99289.42;217524;1257;139423;-70
2023/10/03 17:48:00;;;;;;;13.70;7.20;;;;;;;21.44;58.28;99290.63;217346;1262;139815;-77
2023/10/03 17:53:10;;;;;;;12.30;5.90;;;;;;;21.39;58.33;99285.79;217464;1260;139971;-78
2023/10/03 17:58:17;;;;;;;12.10;7.60;;;;;;;21.33;58.64;99291.23;217180;1257;140511;-76
2023/10/03 18:03:28;;;;;;;11.60;7.40;;;;;;;21.27;58.85;99295.12;218323;1260;139355;-79
2023/10/03 18:08:34;;;;;;;24.30;7.60;;;;;;;21.21;58.96;99288.70;218398;1258;139941;-78
2023/10/03 18:13:40;;;;;;;;;;;;;;;21.14;59.09;99291.41;217870;1257;141327;-84
2023/10/03 18:18:45;;;;;;;16.10;8.50;;;;;;;21.05;59.39;99291.22;218310;1263;126432;-79
2023/10/03 18:23:50;;;;;;;15.90;7.70;;;;;;;21.00;59.57;99284.47;217864;1257;140128;-75
2023/10/03 18:28:58;;;;;;;10.20;7.20;;;;;;;20.96;59.72;99284.09;218604;1260;139743;-72
2023/10/03 18:34:09;;;;;;;15.20;7.30;;;;;;;20.91;59.95;99283.06;218154;1261;139525;-75
2023/10/03 18:39:15;;;;;;;11.90;7.50;;;;;;;20.88;60.04;99278.52;217535;1260;140246;-71
2023/10/03 18:44:23;;;;;;;12.60;7.60;;;;;;;20.86;60.22;99278.31;218127;1257;139250;-72
2023/10/03 18:49:31;;;;;;;10.10;7.30;;;;;;;20.80;60.34;99275.91;217939;1257;140104;-72
2023/10/03 18:54:36;;;;;;;12.90;7.20;;;;;;;20.76;60.45;99268.20;218073;1261;140927;-72
2023/10/03 18:59:40;;;;;;;20.20;8.40;;;;;;;20.72;60.69;99265.21;220375;1257;139651;-68
2023/10/03 19:04:45;;;;;;;13.50;6.10;;;;;;;20.66;60.79;99255.79;219464;1257;140631;-69
2023/10/03 19:09:51;;;;;;;14.10;8.40;;;;;;;20.61;60.87;99245.69;218238;1260;139120;-79
2023/10/03 19:14:55;;;;;;;10.20;7.30;;;;;;;20.56;61.00;99240.13;218670;1257;139941;-76
2023/10/03 19:20:03;;;;;;;13.60;7.90;;;;;;;20.49;61.11;99235.23;217978;1260;139953;-69
2023/10/03 19:25:11;;;;;;;10.30;6.60;;;;;;;20.43;61.24;99231.30;218717;1257;140168;-78
2023/10/03 19:30:19;;;;;;;10.30;7.40;;;;;;;20.37;61.40;99219.15;217651;1257;139885;-80
2023/10/03 19:35:24;;;;;;;14.50;8.20;;;;;;;20.29;61.55;99208.70;217999;1257;140403;-73
2023/10/03 19:40:31;;;;;;;18.10;8.60;;;;;;;20.25;61.68;99190.91;217987;1257;140545;-79
2023/10/03 19:45:39;;;;;;;12.70;7.70;;;;;;;20.17;61.83;99179.64;217295;1257;139905;-75
2023/10/03 19:50:48;;;;;;;15.10;8.10;;;;;;;20.08;62.05;99172.38;217665;1257;139687;-77
2023/10/03 19:55:52;;;;;;;10.70;7.50;;;;;;;19.98;62.36;99174.73;217715;1257;140519;-79
2023/10/03 20:00:57;;;;;;;14.90;8.10;;;;;;;19.92;62.45;99171.16;218064;1259;140516;-78
2023/10/03 20:06:08;;;;;;;12.40;8.10;;;;;;;19.86;62.78;99167.64;217607;1262;140582;-77
2023/10/03 20:11:13;;;;;;;10.00;7.50;;;;;;;19.79;63.07;99169.11;217686;1257;229778;-77
2023/10/03 20:16:22;;;;;;;9.90;6.00;;;;;;;19.77;63.28;99168.84;218178;1257;141422;-75
2023/10/03 20:21:26;;;;;;;16.00;8.60;;;;;;;19.79;63.50;99168.40;218439;1257;140060;-79
2023/10/03 20:26:30;;;;;;;10.20;7.10;;;;;;;19.83;63.75;99153.93;218342;1257;140709;-74
2023/10/03 20:31:33;;;;;;;14.00;8.80;;;;;;;19.86;63.79;99148.94;218124;1257;140576;-73
2023/10/03 20:36:37;;;;;;;19.90;7.60;;;;;;;19.89;63.94;99176.05;217781;1257;141749;-74
2023/10/03 20:41:40;;;;;;;12.70;9.40;;;;;;;19.94;64.49;99273.04;218208;1258;139446;-79
2023/10/03 20:46:43;;;;;;;17.50;9.30;;;;;;;19.73;65.73;99368.63;218111;1257;139605;-76
2023/10/03 20:51:49;;;;;;;15.50;8.30;;;;;;;19.31;67.32;99400.17;218095;1257;139929;-73
2023/10/03 20:56:52;;;;;;;12.00;7.70;;;;;;;18.96;68.86;99424.86;220036;1257;141066;-73
2023/10/03 21:01:55;;;;;;;18.70;7.70;;;;;;;18.75;70.05;99437.96;220002;1257;140858;-77
2023/10/03 21:07:03;;;;;;;12.20;7.20;;;;;;;18.56;71.04;99464.63;219009;1257;140886;-78
2023/10/03 21:12:07;;;;;;;13.20;5.20;;;;;;;18.41;71.95;99511.30;217766;1257;140077;-76
2023/10/03 21:17:12;;;;;;;13.30;4.80;;;;;;;18.24;72.54;99525.63;218063;1259;140429;-74
2023/10/03 21:22:22;;;;;;;12.30;4.10;;;;;;;18.02;72.75;99514.09;218784;1260;140285;-74
2023/10/03 21:27:26;;;;;;;7.20;3.30;;;;;;;17.74;72.63;99530.48;218401;1262;142158;-74
2023/10/03 21:32:32;;;;;;;11.50;3.70;;;;;;;17.48;72.56;99541.40;217780;1259;141837;-73
2023/10/03 21:37:36;;;;;;;8.40;4.10;;;;;;;17.27;72.38;99565.59;217799;1257;141811;-77
2023/10/03 21:42:41;;;;;;;6.80;3.30;;;;;;;17.05;72.29;99565.61;218159;1257;139669;-74
2023/10/03 21:47:47;;;;;;;8.30;3.20;;;;;;;16.82;72.49;99551.61;218270;1256;140379;-70
2023/10/03 21:52:50;;;;;;;7.90;3.80;;;;;;;16.63;72.61;99560.55;217980;1257;139885;-70
2023/10/03 21:57:54;;;;;;;5.00;3.20;;;;;;;16.47;72.90;99572.63;218508;1256;141744;-71
2023/10/03 22:03:00;;;;;;;6.10;3.80;;;;;;;16.30;73.13;99583.35;217319;1261;140284;-73
2023/10/03 22:08:05;;;;;;;9.20;3.60;;;;;;;16.19;73.61;99611.05;218096;1258;140761;-77
2023/10/03 22:13:10;;;;;;;7.60;2.90;;;;;;;16.10;74.02;99619.64;217359;1260;140725;-70
2023/10/03 22:18:15;;;;;;;5.00;3.10;;;;;;;16.00;74.43;99606.43;217968;1260;140372;-73
2023/10/03 22:23:19;;;;;;;5.10;2.80;;;;;;;15.93;74.88;99610.59;217706;1258;140636;-76
2023/10/03 22:28:22;;;;;;;4.20;3.00;;;;;;;15.86;75.20;99614.02;218171;1258;140785;-73
2023/10/03 22:33:26;;;;;;;6.20;3.10;;;;;;;15.84;75.59;99619.77;217598;1257;140545;-74
2023/10/03 22:38:29;;;;;;;4.40;3.30;;;;;;;15.81;75.97;99635.41;219599;1257;140789;-71
2023/10/03 22:43:34;;;;;;;5.90;3.20;;;;;;;15.78;76.25;99652.77;217994;1257;141411;-71
2023/10/03 22:48:41;;;;;;;4.10;2.50;;;;;;;15.76;76.55;99668.25;217309;1259;139771;-71
2023/10/03 22:53:44;;;;;;;4.10;2.90;;;;;;;15.66;76.80;99678.52;219468;1257;140460;-71
2023/10/03 22:58:48;;;;;;;5.30;2.80;;;;;;;15.61;77.09;99706.94;220136;1257;141167;-71
2023/10/03 23:03:52;;;;;;;3.80;2.60;;;;;;;15.56;77.39;99729.73;219973;1257;140725;-72
2023/10/03 23:08:54;;;;;;;6.30;3.70;;;;;;;15.51;77.57;99754.20;219241;1257;140048;-71
2023/10/03 23:13:59;;;;;;;5.90;4.00;;;;;;;15.45;77.72;99740.59;219136;1257;139858;-69
2023/10/03 23:19:03;;;;;;;5.70;3.10;;;;;;;15.35;77.88;99731.33;218589;1257;140214;-73